AirNav   Air Wisconsin Up To $57,000 Bonus
 
 681 users online  

5NE3 Diamond Bar Jones Airport
Stapleton, Nebraska, USA

GOING TO STAPLETON?


FAA INFORMATION EFFECTIVE 03 NOVEMBER 2022

Location

FAA Identifier: 5NE3
Lat/Long: 41-29-14.9920N 100-29-16.5080W
41-29.249867N 100-29.275133W
41.4874978,-100.4879189
(estimated)
Elevation: 2900 ft. / 884 m (estimated)
Variation: 09E (1985)
Time zone: UTC -6 (UTC -5 during Daylight Saving Time)
Zip code: 69163

Airport Operations

Airport use: Private use. Permission required prior to landing
Activation date: 05/1972
Control tower: no
ARTCC: DENVER CENTER
FSS: COLUMBUS FLIGHT SERVICE STATION
Attendance: UNATNDD
Wind indicator: yes
Segmented circle: no

Nearby radio navigation aids

VOR radial/distance  VOR name  Freq  Var
LBFr013/28.8NORTH PLATTE VOR/DME117.4011E
TDDr152/31.4THEDFORD VOR/DME108.6009E
CUZr262/35.9CUSTER COUNTY VOR/DME108.2008E

Airport Services

Airframe service: NONE
Powerplant service: NONE

Runway Information

Runway N/S

Dimensions: 2000 x 200 ft. / 610 x 61 m
Surface: turf
RUNWAY N  RUNWAY S
Traffic pattern: leftleft
Obstructions: plinenone

Airport Ownership and Management from official FAA records

Ownership: Privately-owned
Owner: DIAMOND BAR RANCH
P.O. BOX 65
STAPLETON, NE 69163
Phone 308-636-2398
Manager: ROBERT JONES
P.O. BOX 65
STAPLETON, NE 69163
Phone (308) 636-8353

Airport Operational Statistics

Aircraft based on the field: 1
Single engine airplanes: 1
    

Additional Remarks

FOR CD CTC DENVER ARTCC AT 303-651-4257.

Instrument Procedures

There are no published instrument procedures at 5NE3.

Some nearby airports with instrument procedures:

KLBF - North Platte Regional Airport/Lee Bird Field (23 nm S)
KTIF - Thomas County Airport (29 nm N)
KGTE - Gothenburg Municipal Airport (37 nm SE)
KBBW - Broken Bow Municipal Airport/Keith Glaze Field (38 nm E)
KCZD - Cozad Municipal Airport (43 nm SE)
 
Loc | Ops | Rwys | IFR | FBO | Links
Com | Nav | Svcs | Stats | Notes
Area around 5NE3 (Diamond Bar Jones Airport)
 
Road maps at: MapQuest Bing Google
 
Aerial photo
No photo
 
Sectional chart

 
Airport distance calculator
Flying to Diamond Bar Jones Airport? Find the distance to fly.

From to 5NE3

Sunrise and sunset
Times for 27-Nov-2022
 Local
(UTC-6)
 Zulu
(UTC)
Morning civil twilight07:1513:15
Sunrise07:4613:46
Sunset17:1423:14
Evening civil twilight17:4423:44

Current date and time
Zulu (UTC)  27-Nov-2022 12:47:07
Local (UTC-6)  27-Nov-2022 06:47:07
 
METAR
KLBF 
24nm S 
271153Z AUTO 29007KT 10SM CLR M03/M07 A2995 RMK AO2 SLP152 T10331067 10022 21033 53003
KTIF 
29nm N 
271235Z AUTO 30005KT 10SM CLR M05/M07 A2995 RMK AO2 T10551070
KBBW 
38nm E 
271153Z AUTO 34015KT 10SM FEW120 M01/M04 A2990 RMK AO2 SLP136 T10061044 10011 21006 51006
TAF
KLBF 
24nm S 
271146Z 2712/2812 31008KT P6SM SCT120 SCT250 FM272000 25007KT P6SM SCT250 FM280000 17006KT P6SM SCT250
NOTAMs
Click for the latest NOTAMs
NOTAMs are issued by the DoD/FAA and will open in a separate window not controlled by AirNav.

 

 
 

Would you like to see your business listed on this page?

 If your business provides an interesting product or service to pilots, flight crews, aircraft, or users of the Diamond Bar Jones Airport, you should consider listing it here.  To start the listing process, click on the button below
 
Add a business
 

Other Pages about Diamond Bar Jones Airport

Update a link
 
Copyright © AirNav, LLC. All rights reserved. Privacy Policy  Contact